createdAt,value
2018-10-18T00:01:45.069Z,98666.41
2018-10-18T00:03:57.258Z,98672.32
2018-10-18T00:06:09.642Z,98668.05
2018-10-18T00:08:21.718Z,98669.27
2018-10-18T00:10:33.947Z,98671.23
2018-10-18T00:12:46.171Z,98670.41
2018-10-18T00:14:58.424Z,98664.00
2018-10-18T00:17:16.459Z,98660.27
2018-10-18T00:19:28.711Z,98663.48
2018-10-18T00:21:40.975Z,98662.55
2018-10-18T00:23:53.225Z,98656.16
2018-10-18T00:26:05.468Z,98658.75
2018-10-18T00:28:17.692Z,98661.72
2018-10-18T00:30:30.003Z,98657.88
2018-10-18T00:32:43.062Z,98657.52
2018-10-18T00:34:55.302Z,98653.16
2018-10-18T00:37:07.552Z,98653.56
2018-10-18T00:39:19.774Z,98654.77
2018-10-18T00:41:31.982Z,98655.75
2018-10-18T00:43:44.203Z,98651.14
2018-10-18T00:45:56.392Z,98647.24
2018-10-18T00:48:08.678Z,98651.51
2018-10-18T00:50:20.931Z,98649.22
2018-10-18T00:52:33.147Z,98649.84
2018-10-18T00:54:45.363Z,98656.48
2018-10-18T00:56:57.549Z,98649.78
2018-10-18T00:59:09.810Z,98650.03
2018-10-18T01:01:22.023Z,98646.97
2018-10-18T01:03:34.215Z,98649.05
2018-10-18T01:05:46.475Z,98647.75
2018-10-18T01:07:58.742Z,98644.91
2018-10-18T01:10:10.898Z,98645.09
2018-10-18T01:12:23.178Z,98642.86
2018-10-18T01:14:35.341Z,98643.23
2018-10-18T01:16:52.069Z,98653.62
2018-10-18T01:19:04.331Z,98648.42
2018-10-18T01:21:16.539Z,98643.54
2018-10-18T01:23:28.743Z,98653.09
2018-10-18T01:25:40.950Z,98652.84
2018-10-18T01:27:53.157Z,98651.45
2018-10-18T01:30:05.846Z,98651.85
2018-10-18T01:32:18.089Z,98657.56
2018-10-18T01:34:30.289Z,98661.67
2018-10-18T01:36:42.479Z,98654.78
2018-10-18T01:38:54.759Z,98656.48
2018-10-18T01:41:06.957Z,98654.86
2018-10-18T01:43:19.191Z,98653.25
2018-10-18T01:45:31.431Z,98655.35
2018-10-18T01:47:43.611Z,98659.02
2018-10-18T01:49:55.849Z,98653.45
2018-10-18T01:52:07.999Z,98654.53
2018-10-18T01:54:20.205Z,98654.31
2018-10-18T01:56:32.439Z,98655.38
2018-10-18T01:58:44.654Z,98652.81
2018-10-18T02:00:56.940Z,98653.28
2018-10-18T02:03:09.148Z,98655.12
2018-10-18T02:05:21.371Z,98649.07
2018-10-18T02:07:33.666Z,98652.13
2018-10-18T02:09:45.875Z,98653.66
2018-10-18T02:11:58.176Z,98657.23
2018-10-18T02:14:10.364Z,98657.23
2018-10-18T02:16:22.622Z,98655.41
2018-10-18T02:18:34.811Z,98652.37
2018-10-18T02:20:47.027Z,98651.97
2018-10-18T02:22:59.243Z,98657.25
2018-10-18T02:25:11.511Z,98658.23
2018-10-18T02:27:23.737Z,98653.59
2018-10-18T02:29:35.999Z,98660.97
2018-10-18T02:31:48.154Z,98654.11
2018-10-18T02:34:00.349Z,98652.13
2018-10-18T02:36:12.693Z,98651.76
2018-10-18T02:38:24.808Z,98648.33
2018-10-18T02:40:37.059Z,98655.56
2018-10-18T02:42:49.273Z,98652.14
2018-10-18T02:45:01.490Z,98653.86
2018-10-18T02:47:13.783Z,98648.99
2018-10-18T02:49:26.227Z,98648.94
2018-10-18T02:51:38.450Z,98646.77
2018-10-18T02:53:50.723Z,98642.36
2018-10-18T02:56:02.928Z,98644.36
2018-10-18T02:58:15.112Z,98643.06
2018-10-18T03:00:27.320Z,98642.66
2018-10-18T03:02:39.517Z,98639.23
2018-10-18T03:04:51.727Z,98646.55
2018-10-18T03:07:04.359Z,98647.64
2018-10-18T03:09:16.570Z,98652.22
2018-10-18T03:11:28.790Z,98655.56
2018-10-18T03:13:40.966Z,98652.05
2018-10-18T03:15:53.207Z,98651.37
2018-10-18T03:18:05.569Z,98656.56
2018-10-18T03:20:17.743Z,98655.81
2018-10-18T03:22:29.964Z,98656.87
2018-10-18T03:24:42.188Z,98665.19
2018-10-18T03:26:54.407Z,98665.04
2018-10-18T03:29:06.581Z,98664.31
2018-10-18T03:31:18.799Z,98663.91
2018-10-18T03:33:31.036Z,98662.91
2018-10-18T03:35:43.249Z,98672.34
2018-10-18T03:37:55.449Z,98669.23
2018-10-18T03:40:08.146Z,98666.02
2018-10-18T03:42:20.443Z,98667.08
2018-10-18T03:44:32.571Z,98674.08
2018-10-18T03:46:44.825Z,98671.67
2018-10-18T03:48:57.035Z,98678.81
2018-10-18T03:51:09.214Z,98677.66
2018-10-18T03:53:21.432Z,98673.54
2018-10-18T03:55:33.634Z,98677.97
2018-10-18T03:57:45.876Z,98679.70
2018-10-18T03:59:58.062Z,98668.35
2018-10-18T04:02:10.347Z,98675.30
2018-10-18T04:04:22.687Z,98675.56
2018-10-18T04:06:34.947Z,98673.04
2018-10-18T04:08:47.130Z,98672.72
2018-10-18T04:10:59.319Z,98675.09
2018-10-18T04:13:11.624Z,98679.53
2018-10-18T04:15:23.727Z,98678.30
2018-10-18T04:17:37.890Z,98674.64
2018-10-18T04:19:52.951Z,98680.89
2018-10-18T04:22:05.184Z,98678.44
2018-10-18T04:24:17.470Z,98674.86
2018-10-18T04:26:29.608Z,98675.61
2018-10-18T04:28:41.829Z,98677.97
2018-10-18T04:30:54.028Z,98672.56
2018-10-18T04:33:06.247Z,98679.65
2018-10-18T04:35:18.471Z,98678.20
2018-10-18T04:37:30.744Z,98685.75
2018-10-18T04:39:42.887Z,98682.00
2018-10-18T04:41:55.174Z,98682.52
2018-10-18T04:44:07.455Z,98680.39
2018-10-18T04:46:19.706Z,98682.52
2018-10-18T04:48:32.104Z,98678.63
2018-10-18T04:50:44.282Z,98683.36
2018-10-18T04:52:56.480Z,98683.45
2018-10-18T04:55:08.749Z,98686.41
2018-10-18T04:57:20.964Z,98686.50
2018-10-18T04:59:33.211Z,98687.94
2018-10-18T05:03:57.136Z,98691.73
2018-10-18T05:06:09.371Z,98697.38
2018-10-18T05:08:22.897Z,98691.73
2018-10-18T05:10:35.191Z,98695.16
2018-10-18T05:12:47.468Z,98695.48
2018-10-18T05:14:59.667Z,98702.89
2018-10-18T05:17:11.891Z,98704.23
2018-10-18T05:19:24.097Z,98702.66
2018-10-18T05:21:36.355Z,98702.42
2018-10-18T05:23:48.592Z,98709.33
2018-10-18T05:26:00.783Z,98701.73
2018-10-18T05:28:12.974Z,98701.50
2018-10-18T05:30:25.275Z,98698.86
2018-10-18T05:32:37.484Z,98707.38
2018-10-18T05:34:49.704Z,98705.72
2018-10-18T05:37:01.945Z,98709.28
2018-10-18T05:39:14.129Z,98708.53
2018-10-18T05:41:26.423Z,98711.59
2018-10-18T05:43:38.657Z,98708.07
2018-10-18T05:45:51.809Z,98716.69
2018-10-18T05:48:04.170Z,98715.71
2018-10-18T05:50:16.370Z,98724.78
2018-10-18T05:52:28.588Z,98723.03
2018-10-18T05:54:40.779Z,98733.77
2018-10-18T05:56:52.952Z,98732.09
2018-10-18T05:59:05.200Z,98728.07
2018-10-18T06:01:17.526Z,98734.47
2018-10-18T06:03:29.613Z,98732.57
2018-10-18T06:05:41.846Z,98732.57
2018-10-18T06:07:54.115Z,98738.13
2018-10-18T06:10:17.921Z,98738.39
2018-10-18T06:12:30.120Z,98733.96
2018-10-18T06:14:42.367Z,98740.44
2018-10-18T06:16:54.592Z,98744.66
2018-10-18T06:19:06.846Z,98745.48
2018-10-18T06:21:19.310Z,98745.86
2018-10-18T06:23:31.535Z,98746.96
2018-10-18T06:25:43.758Z,98746.27
2018-10-18T06:27:56.135Z,98750.48
2018-10-18T06:30:10.695Z,98748.17
2018-10-18T06:32:22.894Z,98747.75
2018-10-18T06:34:35.098Z,98747.57
2018-10-18T06:36:47.324Z,98757.20
2018-10-18T06:38:59.546Z,98751.06
2018-10-18T06:41:11.848Z,98753.13
2018-10-18T06:43:23.968Z,98761.40
2018-10-18T06:45:36.171Z,98758.56
2018-10-18T06:47:48.536Z,98758.79
2018-10-18T06:50:00.591Z,98764.98
2018-10-18T06:52:12.799Z,98760.79
2018-10-18T06:54:25.037Z,98759.72
2018-10-18T06:56:37.251Z,98757.71
2018-10-18T06:58:49.500Z,98759.08
2018-10-18T07:01:01.897Z,98755.09
2018-10-18T07:03:14.066Z,98756.15
2018-10-18T07:05:26.335Z,98754.41
2018-10-18T07:07:38.547Z,98764.59
2018-10-18T07:09:50.751Z,98766.44
2018-10-18T07:12:03.010Z,98766.46
2018-10-18T07:14:15.175Z,98774.14
2018-10-18T07:16:27.420Z,98774.11
2018-10-18T07:18:39.671Z,98783.13
2018-10-18T07:20:51.901Z,98784.41
2018-10-18T07:23:04.798Z,98787.97
2018-10-18T07:25:17.083Z,98790.99
2018-10-18T07:27:29.266Z,98791.10
2018-10-18T07:29:41.499Z,98791.53
2018-10-18T07:31:53.703Z,98790.78
2018-10-18T07:34:05.936Z,98794.05
2018-10-18T07:36:18.217Z,98801.62
2018-10-18T07:38:30.430Z,98809.09
2018-10-18T07:40:42.703Z,98802.75
2018-10-18T07:42:54.945Z,98803.39
2018-10-18T07:45:08.140Z,98805.79
2018-10-18T07:47:20.347Z,98811.27
2018-10-18T07:49:34.419Z,98811.95
2018-10-18T07:51:46.664Z,98809.59
2018-10-18T07:53:59.079Z,98804.51
2018-10-18T07:56:11.285Z,98808.42
2018-10-18T07:58:23.565Z,98814.84
2018-10-18T08:00:37.813Z,98804.80
2018-10-18T08:02:49.956Z,98800.68
2018-10-18T08:05:02.191Z,98800.52
2018-10-18T08:07:14.482Z,98799.84
2018-10-18T08:09:27.503Z,98798.38
2018-10-18T08:11:40.847Z,98800.55
2018-10-18T08:13:53.143Z,98800.09
2018-10-18T08:16:05.430Z,98797.45
2018-10-18T08:18:18.669Z,98799.23
2018-10-18T08:20:30.936Z,98796.83
2018-10-18T08:22:43.586Z,98790.75
2018-10-18T08:24:55.800Z,98793.03
2018-10-18T08:27:08.020Z,98788.19
2018-10-18T08:29:20.271Z,98791.28
2018-10-18T08:31:32.574Z,98798.33
2018-10-18T08:33:44.748Z,98794.52
2018-10-18T08:35:56.971Z,98797.97
2018-10-18T08:38:11.868Z,98797.75
2018-10-18T08:40:24.131Z,98796.72
2018-10-18T08:42:36.389Z,98791.88
2018-10-18T08:44:48.615Z,98792.46
2018-10-18T08:47:00.867Z,98790.98
2018-10-18T08:49:13.114Z,98792.41
2018-10-18T08:51:25.301Z,98792.36
2018-10-18T08:53:37.534Z,98793.50
2018-10-18T08:55:49.784Z,98785.69
2018-10-18T08:58:02.062Z,98793.57
2018-10-18T09:00:14.272Z,98789.30
2018-10-18T09:02:26.490Z,98791.42
2018-10-18T09:04:38.703Z,98793.12
2018-10-18T09:06:50.922Z,98790.61
2018-10-18T09:09:04.352Z,98791.20
2018-10-18T09:11:16.640Z,98792.02
2018-10-18T09:13:28.831Z,98787.97
2018-10-18T09:15:43.944Z,98791.81
2018-10-18T09:17:56.180Z,98789.19
2018-10-18T09:20:08.405Z,98802.66
2018-10-18T09:22:20.637Z,98794.91
2018-10-18T09:24:32.939Z,98792.75
2018-10-18T09:26:45.126Z,98784.51
2018-10-18T09:28:57.360Z,98780.22
2018-10-18T09:31:09.647Z,98780.22
2018-10-18T09:33:23.635Z,98777.48
2018-10-18T09:35:35.827Z,98778.81
2018-10-18T09:37:48.087Z,98776.78
2018-10-18T09:40:00.292Z,98781.06
2018-10-18T09:42:12.576Z,98776.39
2018-10-18T09:44:24.860Z,98770.56
2018-10-18T09:46:37.359Z,98775.92
2018-10-18T09:48:51.400Z,98774.61
2018-10-18T09:51:03.637Z,98779.27
2018-10-18T09:53:15.812Z,98776.66
2018-10-18T09:55:28.068Z,98771.48
2018-10-18T09:57:40.503Z,98775.98
2018-10-18T09:59:52.743Z,98778.12
2018-10-18T10:02:10.743Z,98769.33
2018-10-18T10:04:23.143Z,98768.68
2018-10-18T10:06:35.243Z,98766.58
2018-10-18T10:08:47.448Z,98768.98
2018-10-18T10:10:59.655Z,98761.92
2018-10-18T10:13:11.970Z,98764.16
2018-10-18T10:15:24.088Z,98762.83
2018-10-18T10:17:36.352Z,98760.63
2018-10-18T10:19:48.610Z,98757.38
2018-10-18T10:22:00.820Z,98759.95
2018-10-18T10:24:13.058Z,98757.50
2018-10-18T10:26:25.267Z,98758.36
2018-10-18T10:28:37.459Z,98757.88
2018-10-18T10:30:49.680Z,98754.23
2018-10-18T10:33:02.042Z,98747.69
2018-10-18T10:35:15.144Z,98746.91
2018-10-18T10:37:27.250Z,98744.36
2018-10-18T10:39:39.457Z,98742.37
2018-10-18T10:41:51.775Z,98741.28
2018-10-18T10:44:06.365Z,98740.30
2018-10-18T10:46:18.711Z,98737.17
2018-10-18T10:48:30.820Z,98738.38
2018-10-18T10:50:43.090Z,98732.84
2018-10-18T10:52:55.299Z,98737.33
2018-10-18T10:55:08.592Z,98730.55
2018-10-18T10:57:20.822Z,98732.50
2018-10-18T10:59:34.009Z,98727.84
2018-10-18T11:01:46.415Z,98724.67
2018-10-18T11:03:59.351Z,98716.50
2018-10-18T11:06:11.965Z,98717.70
2018-10-18T11:08:24.958Z,98714.33
2018-10-18T11:10:37.242Z,98710.58
2018-10-18T11:12:50.410Z,98713.77
2018-10-18T11:15:02.681Z,98716.76
2018-10-18T11:17:14.878Z,98705.99
2018-10-18T11:19:27.072Z,98711.88
2018-10-18T11:21:39.352Z,98700.31
2018-10-18T11:23:51.542Z,98699.61
2018-10-18T11:26:03.931Z,98695.22
2018-10-18T11:28:16.109Z,98696.69
2018-10-18T11:30:28.344Z,98692.22
2018-10-18T11:32:40.539Z,98694.47
2018-10-18T11:34:52.761Z,98694.40
2018-10-18T11:37:05.234Z,98687.38
2018-10-18T11:39:17.564Z,98687.55
2018-10-18T11:41:29.854Z,98686.52
2018-10-18T11:43:42.114Z,98685.77
2018-10-18T11:45:54.317Z,98681.80
2018-10-18T11:48:07.548Z,98676.47
2018-10-18T11:50:19.760Z,98677.67
2018-10-18T11:52:32.034Z,98676.12
2018-10-18T11:54:44.282Z,98675.34
2018-10-18T11:56:56.587Z,98675.69
2018-10-18T11:59:08.878Z,98667.15
2018-10-18T12:01:21.240Z,98669.30
2018-10-18T12:03:33.431Z,98671.16
2018-10-18T12:05:45.700Z,98668.10
2018-10-18T12:07:57.984Z,98661.55
2018-10-18T12:10:10.832Z,98658.02
2018-10-18T12:12:23.144Z,98655.66
2018-10-18T12:14:35.370Z,98656.22
2018-10-18T12:16:47.630Z,98658.73
2018-10-18T12:19:00.744Z,98648.36
2018-10-18T12:21:13.013Z,98652.31
2018-10-18T12:23:25.248Z,98643.08
2018-10-18T12:25:37.471Z,98641.09
2018-10-18T12:27:49.651Z,98634.83
2018-10-18T12:30:02.510Z,98630.54
2018-10-18T12:32:16.768Z,98633.67
2018-10-18T12:34:29.016Z,98635.16
2018-10-18T12:36:41.284Z,98633.17
2018-10-18T12:38:53.524Z,98635.33
2018-10-18T12:41:05.983Z,98628.52
2018-10-18T12:43:18.131Z,98632.23
2018-10-18T12:45:30.413Z,98629.03
2018-10-18T12:47:42.653Z,98636.04
2018-10-18T12:49:54.928Z,98634.07
2018-10-18T12:52:10.696Z,98629.78
2018-10-18T12:54:22.925Z,98631.09
2018-10-18T12:56:35.212Z,98632.17
2018-10-18T12:58:50.301Z,98629.58
2018-10-18T13:01:02.531Z,98625.66
2018-10-18T13:03:14.762Z,98629.00
2018-10-18T13:05:27.018Z,98627.73
2018-10-18T13:07:39.278Z,98630.03
2018-10-18T13:09:51.566Z,98633.50
2018-10-18T13:12:03.876Z,98625.42
2018-10-18T13:14:16.133Z,98627.44
2018-10-18T13:16:28.259Z,98622.11
2018-10-18T13:18:40.458Z,98626.53
2018-10-18T13:20:52.688Z,98618.61
2018-10-18T13:23:04.899Z,98626.70
2018-10-18T13:25:25.272Z,98617.45
2018-10-18T13:27:37.771Z,98619.27
2018-10-18T13:29:51.006Z,98615.59
2018-10-18T13:32:03.383Z,98614.61
2018-10-18T13:34:15.657Z,98616.13
2018-10-18T13:36:27.787Z,98613.33
2018-10-18T13:38:40.073Z,98614.48
2018-10-18T13:40:52.344Z,98615.02
2018-10-18T13:43:04.603Z,98619.80
2018-10-18T13:45:16.881Z,98618.81
2018-10-18T13:47:29.121Z,98616.34
2018-10-18T13:49:41.423Z,98614.86
2018-10-18T13:51:53.603Z,98623.81
2018-10-18T13:54:05.884Z,98620.96
2018-10-18T13:56:18.113Z,98621.04
2018-10-18T13:58:30.331Z,98621.82
2018-10-18T14:00:42.578Z,98621.91
2018-10-18T14:02:55.159Z,98623.17
2018-10-18T14:05:07.485Z,98619.50
2018-10-18T14:07:19.620Z,98612.16
2018-10-18T14:09:31.818Z,98612.61
2018-10-18T14:11:44.060Z,98614.26
2018-10-18T14:13:56.288Z,98613.22
2018-10-18T14:16:08.518Z,98611.52
2018-10-18T14:18:20.765Z,98611.73
2018-10-18T14:20:33.034Z,98612.39
2018-10-18T14:22:45.251Z,98614.13
2018-10-18T14:24:58.496Z,98618.38
2018-10-18T14:27:11.759Z,98613.95
2018-10-18T14:29:23.987Z,98612.09
2018-10-18T14:31:36.223Z,98608.13
2018-10-18T14:33:48.441Z,98603.97
2018-10-18T14:36:00.688Z,98607.75
2018-10-18T14:38:13.940Z,98605.94
2018-10-18T14:40:26.035Z,98607.59
2018-10-18T14:42:40.207Z,98613.85
2018-10-18T14:44:52.495Z,98612.30
2018-10-18T14:47:04.940Z,98612.97
2018-10-18T14:49:17.071Z,98619.11
2018-10-18T14:51:30.211Z,98614.00
2018-10-18T14:53:43.367Z,98619.64
2018-10-18T14:55:55.605Z,98616.02
2018-10-18T14:58:07.826Z,98612.56
2018-10-18T15:00:23.001Z,98611.08
2018-10-18T15:02:35.217Z,98614.70
2018-10-18T15:04:47.489Z,98619.33
2018-10-18T15:06:59.728Z,98620.19
2018-10-18T15:09:12.006Z,98617.05
2018-10-18T15:11:24.271Z,98610.74
2018-10-18T15:13:38.418Z,98611.08
2018-10-18T15:15:50.683Z,98619.33
2018-10-18T15:18:02.951Z,98617.67
2018-10-18T15:20:15.299Z,98617.34
2018-10-18T15:22:27.451Z,98619.28
2018-10-18T15:24:39.738Z,98618.41
2018-10-18T15:26:51.981Z,98623.76
2018-10-18T15:29:04.376Z,98621.81
2018-10-18T15:31:16.597Z,98625.94
2018-10-18T15:33:28.805Z,98625.56
2018-10-18T15:35:41.053Z,98626.16
2018-10-18T15:37:53.391Z,98626.85
2018-10-18T15:40:07.765Z,98628.03
2018-10-18T15:42:19.996Z,98629.91
2018-10-18T15:44:32.243Z,98626.67
2018-10-18T15:46:44.496Z,98625.50
2018-10-18T15:48:56.744Z,98626.55
2018-10-18T15:51:09.067Z,98630.56
2018-10-18T15:53:21.256Z,98633.57
2018-10-18T15:55:33.429Z,98633.30
2018-10-18T15:57:45.680Z,98643.55
2018-10-18T15:59:57.927Z,98652.16
2018-10-18T16:02:10.182Z,98645.06
2018-10-18T16:04:22.430Z,98650.34
2018-10-18T16:06:34.730Z,98655.05
2018-10-18T16:08:47.068Z,98657.05
2018-10-18T16:11:00.228Z,98654.34
2018-10-18T16:13:13.567Z,98655.81
2018-10-18T16:15:25.822Z,98656.55
2018-10-18T16:17:44.209Z,98662.69
2018-10-18T16:19:56.336Z,98664.68
2018-10-18T16:22:08.557Z,98665.59
2018-10-18T16:24:20.851Z,98668.03
2018-10-18T16:26:34.933Z,98679.20
2018-10-18T16:28:47.169Z,98682.36
2018-10-18T16:30:59.425Z,98684.12
2018-10-18T16:33:11.686Z,98692.56
2018-10-18T16:35:23.942Z,98697.83
2018-10-18T16:37:38.178Z,98698.69
2018-10-18T16:39:50.463Z,98706.84
2018-10-18T16:42:02.854Z,98709.53
2018-10-18T16:44:15.021Z,98716.13
2018-10-18T16:46:27.427Z,98715.30
2018-10-18T16:48:39.727Z,98714.41
2018-10-18T16:50:51.996Z,98719.44
2018-10-18T16:53:05.020Z,98720.18
2018-10-18T16:55:20.289Z,98724.38
2018-10-18T16:57:32.491Z,98724.97
2018-10-18T16:59:44.748Z,98727.03
2018-10-18T17:01:57.051Z,98735.66
2018-10-18T17:04:09.354Z,98730.16
2018-10-18T17:06:21.609Z,98736.98
2018-10-18T17:08:33.819Z,98736.30
2018-10-18T17:10:46.075Z,98746.09
2018-10-18T17:12:58.702Z,98744.09
2018-10-18T17:15:12.808Z,98747.55
2018-10-18T17:17:25.027Z,98747.89
2018-10-18T17:19:37.296Z,98751.59
2018-10-18T17:21:49.591Z,98755.21
2018-10-18T17:24:01.863Z,98756.33
2018-10-18T17:26:14.181Z,98759.68
2018-10-18T17:28:26.357Z,98759.09
2018-10-18T17:30:38.627Z,98762.80
2018-10-18T17:32:50.912Z,98762.08
2018-10-18T17:35:03.341Z,98755.65
2018-10-18T17:37:15.630Z,98761.77
2018-10-18T17:39:27.858Z,98763.33
2018-10-18T17:41:40.172Z,98762.75
2018-10-18T17:43:52.429Z,98761.67
2018-10-18T17:46:05.062Z,98761.47
2018-10-18T17:48:17.307Z,98766.00
2018-10-18T17:50:29.652Z,98766.58
2018-10-18T17:52:41.921Z,98769.11
2018-10-18T17:54:54.271Z,98770.31
2018-10-18T17:57:06.560Z,98770.33
2018-10-18T17:59:18.819Z,98774.47
2018-10-18T18:01:31.139Z,98771.86
2018-10-18T18:03:43.355Z,98774.15
2018-10-18T18:05:55.700Z,98775.23
2018-10-18T18:08:07.997Z,98779.27
2018-10-18T18:10:20.232Z,98780.58
2018-10-18T18:12:32.487Z,98778.17
2018-10-18T18:14:44.787Z,98782.91
2018-10-18T18:16:56.997Z,98788.36
2018-10-18T18:19:09.302Z,98790.88
2018-10-18T18:21:21.568Z,98793.33
2018-10-18T18:23:33.903Z,98795.78
2018-10-18T18:25:46.237Z,98802.41
2018-10-18T18:27:59.536Z,98802.71
2018-10-18T18:30:13.909Z,98798.98
2018-10-18T18:32:26.183Z,98800.25
2018-10-18T18:34:38.916Z,98799.37
2018-10-18T18:36:51.222Z,98802.33
2018-10-18T18:39:05.342Z,98809.68
2018-10-18T18:41:17.682Z,98809.96
2018-10-18T18:43:30.301Z,98809.52
2018-10-18T18:45:42.622Z,98813.36
2018-10-18T18:47:56.842Z,98808.66
2018-10-18T18:50:09.630Z,98819.06
2018-10-18T18:52:30.437Z,98820.02
2018-10-18T18:54:42.745Z,98815.58
2018-10-18T18:56:55.123Z,98827.13
2018-10-18T18:59:07.347Z,98824.91
2018-10-18T19:01:19.605Z,98829.00
2018-10-18T19:03:32.192Z,98829.67
2018-10-18T19:05:44.605Z,98832.60
2018-10-18T19:07:56.904Z,98833.16
2018-10-18T19:10:09.200Z,98831.89
2018-10-18T19:12:21.512Z,98834.73
2018-10-18T19:14:33.761Z,98826.45
2018-10-18T19:16:46.049Z,98827.96
2018-10-18T19:18:58.284Z,98827.72
2018-10-18T19:21:10.608Z,98834.64
2018-10-18T19:23:22.991Z,98834.00
2018-10-18T19:25:35.250Z,98838.11
2018-10-18T19:27:47.518Z,98840.05
2018-10-18T19:29:59.764Z,98832.33
2018-10-18T19:32:12.222Z,98842.86
2018-10-18T19:34:24.475Z,98839.13
2018-10-18T19:36:36.796Z,98839.80
2018-10-18T19:38:49.116Z,98843.27
2018-10-18T19:41:01.383Z,98838.62
2018-10-18T19:43:13.938Z,98843.48
2018-10-18T19:45:26.205Z,98847.77
2018-10-18T19:47:38.748Z,98853.54
2018-10-18T19:49:51.007Z,98858.23
2018-10-18T19:52:03.351Z,98856.83
2018-10-18T19:54:15.553Z,98853.38
2018-10-18T19:56:27.826Z,98850.05
2018-10-18T19:58:40.151Z,98851.14
2018-10-18T20:00:52.364Z,98856.20
2018-10-18T20:03:05.020Z,98852.73
2018-10-18T20:05:17.324Z,98857.11
2018-10-18T20:07:29.660Z,98863.53
2018-10-18T20:09:42.062Z,98868.86
2018-10-18T20:11:54.345Z,98875.41
2018-10-18T20:14:06.668Z,98870.07
2018-10-18T20:16:18.921Z,98866.88
2018-10-18T20:18:31.144Z,98865.06
2018-10-18T20:20:43.554Z,98866.17
2018-10-18T20:22:55.916Z,98866.30
2018-10-18T20:25:09.348Z,98867.30
2018-10-18T20:27:21.680Z,98864.49
2018-10-18T20:29:33.963Z,98866.05
2018-10-18T20:31:46.190Z,98864.77
2018-10-18T20:33:58.442Z,98868.64
2018-10-18T20:36:10.699Z,98874.37
2018-10-18T20:38:22.988Z,98870.55
2018-10-18T20:40:35.263Z,98870.73
2018-10-18T20:42:47.556Z,98866.00
2018-10-18T20:44:59.871Z,98875.25
2018-10-18T20:47:12.212Z,98882.50
2018-10-18T20:49:24.419Z,98877.86
2018-10-18T20:51:36.760Z,98886.88
2018-10-18T20:53:48.981Z,98890.55
2018-10-18T20:56:01.251Z,98891.84
2018-10-18T20:58:13.472Z,98892.09
2018-10-18T21:00:25.715Z,98896.01
2018-10-18T21:02:38.012Z,98895.92
2018-10-18T21:04:50.273Z,98897.88
2018-10-18T21:07:02.568Z,98895.45
2018-10-18T21:09:14.897Z,98895.98
2018-10-18T21:11:27.076Z,98902.60
2018-10-18T21:13:39.299Z,98896.61
2018-10-18T21:15:51.520Z,98899.36
2018-10-18T21:18:04.436Z,98902.34
2018-10-18T21:20:16.695Z,98902.57
2018-10-18T21:22:28.920Z,98907.78
2018-10-18T21:24:41.130Z,98907.95
2018-10-18T21:26:53.478Z,98905.45
2018-10-18T21:29:05.760Z,98901.24
2018-10-18T21:31:17.922Z,98902.98
2018-10-18T21:33:30.147Z,98908.54
2018-10-18T21:35:42.374Z,98907.20
2018-10-18T21:37:54.765Z,98904.97
2018-10-18T21:40:07.105Z,98901.13
2018-10-18T21:42:19.323Z,98901.97
2018-10-18T21:44:34.169Z,98902.60
2018-10-18T21:46:46.399Z,98901.56
2018-10-18T21:48:58.684Z,98903.87
2018-10-18T21:51:10.948Z,98908.67
2018-10-18T21:53:23.190Z,98911.91
2018-10-18T21:55:35.507Z,98905.03
2018-10-18T21:57:47.771Z,98909.27
2018-10-18T22:00:00.163Z,98911.56
2018-10-18T22:02:12.505Z,98908.69
2018-10-18T22:04:24.799Z,98912.45
2018-10-18T22:06:37.048Z,98912.08
2018-10-18T22:08:49.333Z,98910.48
2018-10-18T22:11:01.672Z,98917.03
2018-10-18T22:13:13.933Z,98912.82
2018-10-18T22:15:26.157Z,98911.52
2018-10-18T22:17:38.341Z,98906.78
2018-10-18T22:19:50.618Z,98911.47
2018-10-18T22:22:02.932Z,98907.83
2018-10-18T22:24:15.155Z,98910.12
2018-10-18T22:26:27.417Z,98908.05
2018-10-18T22:28:39.664Z,98901.01
2018-10-18T22:30:51.924Z,98900.64
2018-10-18T22:33:04.504Z,98897.80
2018-10-18T22:35:16.858Z,98893.94
2018-10-18T22:37:29.044Z,98886.88
2018-10-18T22:39:41.277Z,98884.59
2018-10-18T22:41:53.576Z,98889.05
2018-10-18T22:44:05.959Z,98888.43
2018-10-18T22:46:18.196Z,98888.16
2018-10-18T22:48:31.195Z,98886.55
2018-10-18T22:50:43.404Z,98888.68
2018-10-18T22:52:55.707Z,98891.75
2018-10-18T22:55:07.897Z,98884.78
2018-10-18T22:57:20.116Z,98887.31
2018-10-18T22:59:32.338Z,98893.05
2018-10-18T23:01:44.548Z,98889.86
2018-10-18T23:03:56.762Z,98887.19
2018-10-18T23:06:08.955Z,98895.23
2018-10-18T23:08:21.179Z,98890.70
2018-10-18T23:10:33.384Z,98889.18
2018-10-18T23:12:45.623Z,98893.32
2018-10-18T23:14:57.851Z,98890.19
2018-10-18T23:17:10.107Z,98887.50
2018-10-18T23:19:22.221Z,98892.41
2018-10-18T23:21:34.472Z,98890.80
2018-10-18T23:23:46.663Z,98885.45
2018-10-18T23:25:58.869Z,98882.63
2018-10-18T23:28:11.084Z,98884.23
2018-10-18T23:30:23.337Z,98888.13
2018-10-18T23:32:35.528Z,98888.56
2018-10-18T23:34:47.736Z,98896.50
2018-10-18T23:37:00.128Z,98898.88
2018-10-18T23:39:12.371Z,98892.70
2018-10-18T23:41:24.539Z,98898.78
2018-10-18T23:43:36.773Z,98897.06
2018-10-18T23:45:52.263Z,98895.16
2018-10-18T23:48:04.786Z,98896.83
2018-10-18T23:50:17.075Z,98895.16
2018-10-18T23:52:29.327Z,98900.03
2018-10-18T23:54:41.513Z,98895.50
2018-10-18T23:56:53.721Z,98899.56
2018-10-18T23:59:06.005Z,98902.59
